AZO weather

Kalamazoo Battle Creek International Airport
Kalamazoo, Michigan, United States

Public forecast

Using degrees Fahrenheit for public forecast. Weather courtesy of forecast.io.

METAR (pilot weather report)

Retrieved 2019/08/17 20:53 UTC (50 minutes ago):

KAZO 172053Z 00000KT 10SM SCT037 BKN100 27/19 A2989 RMK AO2 RAB06E41 SLP117 P0000 60000 T02670194 57019

TAF (pilot weather forecast)

Retrieved 2019/08/17 18:42 UTC (3 hours ago):

TAF KAZO 171740Z 1718/1818 27006KT P6SM BKN060 FM172100 20005KT P6SM VCTS BKN035CB OVC070 FM180100 00000KT P6SM VCSH SCT030 BKN060 FM180800 18003KT P6SM VCFG FEW010 SCT050 FM181100 19003KT 5SM BR VCFG OVC009 FM181300 21008KT P6SM VCTS BKN050CB